Wetterdaten: Woche 05.10.15 - 11.10.15 (KW41)
Datum Zeit Temp. A. Feuchte A. Luftdruck Regen Wind Richtung Sonnenschein ET UV Solar Taupunkt Windchill Windben Empfang
05.10.2015 00:00 9,2 C 97 % 1018,5 hPa 0,0 l/m 0,0 km/h (0 Bft) N 0,00 h 0,000 mm 0,0 UV-I 0 W/m 8,8 C 9,2 C 0,0 km/h (0 Bft) 0,00 %
05.10.2015 01:00 9,0 C 97 % 1018,4 hPa 0,0 l/m 0,0 km/h (0 Bft) N 0,00 h 0,000 mm 0,0 UV-I 0 W/m 8,6 C 9,0 C 0,0 km/h (0 Bft) 0,00 %
05.10.2015 02:00 8,3 C 98 % 1017,8 hPa 0,0 l/m 0,0 km/h (0 Bft) N 0,00 h 0,000 mm 0,0 UV-I 0 W/m 8,1 C 8,3 C 0,0 km/h (0 Bft) 0,00 %
05.10.2015 03:00 7,1 C 98 % 1017,7 hPa 0,0 l/m 0,0 km/h (0 Bft) N 0,00 h 0,000 mm 0,0 UV-I 0 W/m 6,7 C 7,1 C 0,0 km/h (0 Bft) 0,00 %
05.10.2015 04:00 6,5 C 97 % 1017,7 hPa 0,0 l/m 0,0 km/h (0 Bft) N 0,00 h 0,000 mm 0,0 UV-I 0 W/m 6,0 C 6,5 C 0,0 km/h (0 Bft) 0,00 %
05.10.2015 05:00 6,1 C 97 % 1018,0 hPa 0,0 l/m 0,1 km/h (0 Bft) S 0,00 h 0,000 mm 0,0 UV-I 0 W/m 5,7 C 6,1 C 0,3 km/h (0 Bft) 0,00 %
05.10.2015 06:00 5,4 C 98 % 1018,3 hPa 0,0 l/m 0,3 km/h (0 Bft) S-SW 0,00 h 0,000 mm 0,0 UV-I 0 W/m 5,1 C 5,4 C 1,3 km/h (1 Bft) 0,00 %
05.10.2015 07:00 4,7 C 99 % 1018,2 hPa 0,0 l/m 0,2 km/h (0 Bft) S 0,00 h 0,000 mm 0,0 UV-I 33 W/m 4,6 C 4,7 C 0,3 km/h (0 Bft) 0,00 %
05.10.2015 08:00 5,5 C 98 % 1018,1 hPa 0,0 l/m 0,2 km/h (0 Bft) S-SW 0,00 h 0,000 mm 1,0 UV-I 104 W/m 5,2 C 5,5 C 0,3 km/h (0 Bft) 0,00 %
05.10.2015 09:00 7,4 C 99 % 1018,4 hPa 0,0 l/m 0,0 km/h (0 Bft) N 0,00 h 0,000 mm 1,0 UV-I 169 W/m 7,2 C 7,4 C 0,0 km/h (0 Bft) 0,00 %
05.10.2015 10:00 9,5 C 96 % 1018,1 hPa 0,0 l/m 0,0 km/h (0 Bft) N 0,00 h 0,000 mm 1,0 UV-I 228 W/m 8,9 C 9,5 C 0,0 km/h (0 Bft) 0,00 %
05.10.2015 11:00 10,3 C 88 % 1017,9 hPa 0,0 l/m 0,5 km/h (0 Bft) O-NO 0,08 h 0,000 mm 1,1 UV-I 271 W/m 8,3 C 10,3 C 1,0 km/h (0 Bft) 0,00 %
05.10.2015 12:00 11,5 C 82 % 1017,5 hPa 0,0 l/m 0,1 km/h (0 Bft) N 0,83 h 0,000 mm 1,8 UV-I 416 W/m 8,5 C 11,5 C 0,7 km/h (0 Bft) 0,00 %
05.10.2015 13:00 13,1 C 75 % 1017,0 hPa 0,0 l/m 0,1 km/h (0 Bft) N 0,92 h 0,000 mm 1,5 UV-I 664 W/m 8,7 C 13,1 C 0,3 km/h (0 Bft) 0,00 %
05.10.2015 14:00 15,9 C 61 % 1016,0 hPa 0,0 l/m 0,8 km/h (0 Bft) O-NO 1,00 h 0,000 mm 1,0 UV-I 747 W/m 8,3 C 15,9 C 1,7 km/h (1 Bft) 0,00 %
05.10.2015 15:00 16,8 C 55 % 1015,2 hPa 0,0 l/m 0,0 km/h (0 Bft) O 1,02 h 0,000 mm 1,0 UV-I 701 W/m 7,8 C 16,8 C 0,3 km/h (0 Bft) 0,00 %
05.10.2015 16:00 16,7 C 51 % 1014,3 hPa 0,0 l/m 1,4 km/h (1 Bft) O 1,00 h 0,000 mm 1,0 UV-I 573 W/m 6,5 C 16,7 C 3,0 km/h (1 Bft) 0,00 %
05.10.2015 17:00 16,9 C 51 % 1013,7 hPa 0,0 l/m 0,1 km/h (0 Bft) O-NO 1,00 h 0,000 mm 1,0 UV-I 440 W/m 6,5 C 16,9 C 0,3 km/h (0 Bft) 0,00 %
05.10.2015 18:00 15,0 C 56 % 1014,0 hPa 0,0 l/m 0,0 km/h (0 Bft) N 0,42 h 0,000 mm 0,0 UV-I 63 W/m 6,3 C 15,0 C 0,0 km/h (0 Bft) 0,00 %
05.10.2015 19:00 11,4 C 73 % 1014,0 hPa 0,0 l/m 0,0 km/h (0 Bft) N 0,00 h 0,000 mm 0,0 UV-I 0 W/m 6,6 C 11,4 C 0,0 km/h (0 Bft) 0,00 %
05.10.2015 20:00 11,1 C 78 % 1013,5 hPa 0,0 l/m 0,0 km/h (0 Bft) N 0,00 h 0,000 mm 0,0 UV-I 0 W/m 7,5 C 11,1 C 0,3 km/h (0 Bft) 0,00 %
05.10.2015 21:00 9,5 C 85 % 1013,4 hPa 0,0 l/m 0,0 km/h (0 Bft) N 0,00 h 0,000 mm 0,0 UV-I 0 W/m 7,1 C 9,5 C 0,0 km/h (0 Bft) 0,00 %
05.10.2015 22:00 8,7 C 91 % 1012,9 hPa 0,0 l/m 0,0 km/h (0 Bft) N 0,00 h 0,000 mm 0,0 UV-I 0 W/m 7,3 C 8,7 C 0,0 km/h (0 Bft) 0,00 %
05.10.2015 23:00 8,6 C 93 % 1012,1 hPa 0,0 l/m 0,1 km/h (0 Bft) O-NO 0,00 h 0,000 mm 0,0 UV-I 0 W/m 7,5 C 8,6 C 0,3 km/h (0 Bft) 0,00 %
06.10.2015 00:00 8,0 C 95 % 1011,6 hPa 0,0 l/m 0,0 km/h (0 Bft) N 0,00 h 0,000 mm 0,0 UV-I 0 W/m 7,3 C 8,0 C 0,0 km/h (0 Bft) 0,00 %
06.10.2015 01:00 7,6 C 97 % 1010,9 hPa 0,0 l/m 0,0 km/h (0 Bft) N 0,00 h 0,000 mm 0,0 UV-I 0 W/m 7,1 C 7,6 C 0,0 km/h (0 Bft) 0,00 %
06.10.2015 02:00 7,0 C 96 % 1010,6 hPa 0,0 l/m 0,0 km/h (0 Bft) N 0,00 h 0,000 mm 0,0 UV-I 0 W/m 6,5 C 7,0 C 0,0 km/h (0 Bft) 0,00 %
06.10.2015 03:00 6,8 C 97 % 1010,5 hPa 0,0 l/m 0,0 km/h (0 Bft) N 0,00 h 0,000 mm 0,0 UV-I 0 W/m 6,4 C 6,8 C 0,0 km/h (0 Bft) 0,00 %
06.10.2015 04:00 7,1 C 96 % 1010,7 hPa 0,0 l/m 0,3 km/h (0 Bft) S 0,00 h 0,000 mm 0,0 UV-I 0 W/m 6,5 C 7,1 C 1,3 km/h (1 Bft) 0,00 %
06.10.2015 05:00 7,6 C 96 % 1010,4 hPa 0,0 l/m 0,0 km/h (0 Bft) N 0,00 h 0,000 mm 0,0 UV-I 0 W/m 7,0 C 7,6 C 0,0 km/h (0 Bft) 0,00 %
06.10.2015 06:00 7,8 C 96 % 1010,4 hPa 0,0 l/m 0,0 km/h (0 Bft) N 0,00 h 0,000 mm 0,0 UV-I 0 W/m 7,2 C 7,8 C 0,0 km/h (0 Bft) 0,00 %
06.10.2015 07:00 8,0 C 96 % 1010,7 hPa 0,3 l/m 0,0 km/h (0 Bft) N 0,00 h 0,000 mm 0,0 UV-I 7 W/m 7,3 C 8,0 C 0,0 km/h (0 Bft) 0,00 %
06.10.2015 08:00 9,0 C 95 % 1011,0 hPa 0,0 l/m 0,0 km/h (0 Bft) N 0,00 h 0,000 mm 0,0 UV-I 51 W/m 8,3 C 9,0 C 0,0 km/h (0 Bft) 0,00 %
06.10.2015 09:00 10,0 C 92 % 1010,7 hPa 0,0 l/m 0,0 km/h (0 Bft) O-SO 0,00 h 0,000 mm 1,0 UV-I 92 W/m 8,8 C 10,0 C 0,0 km/h (0 Bft) 0,00 %
06.10.2015 10:00 11,1 C 86 % 1010,3 hPa 0,0 l/m 2,3 km/h (1 Bft) O 0,25 h 0,000 mm 1,2 UV-I 241 W/m 8,8 C 11,1 C 4,3 km/h (1 Bft) 0,00 %
06.10.2015 11:00 13,3 C 77 % 1009,5 hPa 0,0 l/m 4,7 km/h (1 Bft) O-NO 1,00 h 0,000 mm 1,9 UV-I 374 W/m 9,3 C 13,1 C 7,6 km/h (2 Bft) 0,00 %
06.10.2015 12:00 14,8 C 69 % 1009,0 hPa 0,0 l/m 3,2 km/h (1 Bft) O-NO 1,00 h 0,000 mm 1,9 UV-I 391 W/m 9,2 C 14,6 C 5,6 km/h (1 Bft) 0,00 %
06.10.2015 13:00 16,0 C 62 % 1008,3 hPa 0,0 l/m 4,1 km/h (1 Bft) O 1,00 h 0,000 mm 2,0 UV-I 503 W/m 8,8 C 15,9 C 6,6 km/h (2 Bft) 0,00 %
06.10.2015 14:00 17,8 C 59 % 1007,0 hPa 0,0 l/m 5,3 km/h (1 Bft) O 1,00 h 0,000 mm 1,0 UV-I 691 W/m 9,7 C 17,4 C 7,3 km/h (2 Bft) 0,00 %
06.10.2015 15:00 17,7 C 63 % 1006,7 hPa 0,0 l/m 4,7 km/h (1 Bft) O-NO 0,92 h 0,000 mm 1,0 UV-I 362 W/m 10,4 C 17,4 C 8,3 km/h (2 Bft) 0,00 %
06.10.2015 16:00 17,7 C 63 % 1006,6 hPa 0,0 l/m 5,9 km/h (2 Bft) O-SO 0,42 h 0,000 mm 1,0 UV-I 183 W/m 10,6 C 17,4 C 8,6 km/h (2 Bft) 0,00 %
06.10.2015 17:00 16,4 C 68 % 1006,7 hPa 0,0 l/m 6,0 km/h (2 Bft) O 0,00 h 0,000 mm 0,0 UV-I 66 W/m 10,4 C 15,9 C 8,9 km/h (2 Bft) 0,00 %
06.10.2015 18:00 15,2 C 73 % 1006,9 hPa 0,0 l/m 5,7 km/h (1 Bft) O 0,00 h 0,000 mm 0,0 UV-I 12 W/m 10,4 C 14,8 C 8,9 km/h (2 Bft) 0,00 %
06.10.2015 19:00 14,6 C 81 % 1006,9 hPa 0,0 l/m 4,4 km/h (1 Bft) O 0,00 h 0,000 mm 0,0 UV-I 0 W/m 11,3 C 14,3 C 7,9 km/h (2 Bft) 0,00 %
06.10.2015 20:00 14,5 C 83 % 1007,2 hPa 0,0 l/m 7,0 km/h (2 Bft) O 0,00 h 0,000 mm 0,0 UV-I 0 W/m 11,6 C 13,8 C 10,6 km/h (2 Bft) 0,00 %
06.10.2015 21:00 14,4 C 83 % 1007,6 hPa 0,0 l/m 2,4 km/h (1 Bft) O-SO 0,00 h 0,000 mm 0,0 UV-I 0 W/m 11,7 C 14,4 C 5,0 km/h (1 Bft) 0,00 %
06.10.2015 22:00 14,1 C 86 % 1009,0 hPa 0,0 l/m 0,3 km/h (0 Bft) N 0,00 h 0,000 mm 0,0 UV-I 0 W/m 11,9 C 14,1 C 0,7 km/h (0 Bft) 0,00 %
06.10.2015 23:00 13,4 C 92 % 1009,6 hPa 0,0 l/m 0,0 km/h (0 Bft) N 0,00 h 0,000 mm 0,0 UV-I 0 W/m 12,1 C 13,4 C 0,0 km/h (0 Bft) 0,00 %
07.10.2015 00:00 13,2 C 94 % 1009,7 hPa 0,0 l/m 0,5 km/h (0 Bft) O-SO 0,00 h 0,000 mm 0,0 UV-I 0 W/m 12,3 C 13,2 C 2,0 km/h (1 Bft) 0,00 %
07.10.2015 01:00 13,4 C 94 % 1009,9 hPa 0,3 l/m 2,8 km/h (1 Bft) S-SW 0,00 h 0,000 mm 0,0 UV-I 0 W/m 12,5 C 13,4 C 5,3 km/h (1 Bft) 0,00 %
07.10.2015 02:00 13,3 C 94 % 1010,1 hPa 0,0 l/m 4,3 km/h (1 Bft) S-SW 0,00 h 0,000 mm 0,0 UV-I 0 W/m 12,3 C 13,0 C 7,3 km/h (2 Bft) 0,00 %
07.10.2015 03:00 13,0 C 93 % 1010,1 hPa 0,3 l/m 3,8 km/h (1 Bft) S 0,00 h 0,000 mm 0,0 UV-I 0 W/m 11,9 C 13,0 C 6,6 km/h (2 Bft) 0,00 %
07.10.2015 04:00 12,6 C 95 % 1010,2 hPa 0,9 l/m 5,0 km/h (1 Bft) S-SW 0,00 h 0,000 mm 0,0 UV-I 0 W/m 11,8 C 12,3 C 7,9 km/h (2 Bft) 0,00 %
07.10.2015 05:00 12,4 C 96 % 1010,3 hPa 1,2 l/m 1,3 km/h (1 Bft) S-SW 0,00 h 0,000 mm 0,0 UV-I 0 W/m 11,8 C 12,4 C 3,3 km/h (1 Bft) 0,00 %
07.10.2015 06:00 12,4 C 97 % 1010,5 hPa 1,8 l/m 1,8 km/h (1 Bft) S-SW 0,00 h 0,000 mm 0,0 UV-I 0 W/m 11,9 C 12,4 C 3,6 km/h (1 Bft) 0,00 %
07.10.2015 07:00 12,3 C 97 % 1010,7 hPa 2,4 l/m 1,4 km/h (1 Bft) S-SW 0,00 h 0,000 mm 0,0 UV-I 4 W/m 11,9 C 12,3 C 3,3 km/h (1 Bft) 0,00 %
07.10.2015 08:00 12,5 C 98 % 1011,2 hPa 0,9 l/m 0,4 km/h (0 Bft) S 0,00 h 0,000 mm 0,0 UV-I 32 W/m 12,1 C 12,5 C 1,3 km/h (1 Bft) 0,00 %
07.10.2015 09:00 12,8 C 98 % 1011,6 hPa 2,1 l/m 2,0 km/h (1 Bft) S 0,00 h 0,000 mm 1,0 UV-I 71 W/m 12,4 C 12,8 C 4,3 km/h (1 Bft) 0,00 %
07.10.2015 10:00 13,0 C 97 % 1011,9 hPa 0,6 l/m 3,9 km/h (1 Bft) S-SW 0,00 h 0,000 mm 0,0 UV-I 93 W/m 12,6 C 12,7 C 6,6 km/h (2 Bft) 0,00 %
07.10.2015 11:00 13,2 C 97 % 1012,2 hPa 1,5 l/m 2,6 km/h (1 Bft) SW 0,00 h 0,000 mm 1,0 UV-I 92 W/m 12,7 C 13,0 C 4,0 km/h (1 Bft) 0,00 %
07.10.2015 12:00 13,3 C 96 % 1012,5 hPa 1,8 l/m 2,8 km/h (1 Bft) S-SW 0,00 h 0,000 mm 1,0 UV-I 127 W/m 12,8 C 13,3 C 4,6 km/h (1 Bft) 0,00 %
07.10.2015 13:00 13,9 C 96 % 1012,5 hPa 0,9 l/m 0,7 km/h (0 Bft) S 0,00 h 0,000 mm 1,0 UV-I 166 W/m 13,2 C 13,9 C 2,0 km/h (1 Bft) 0,00 %
07.10.2015 14:00 14,2 C 95 % 1012,7 hPa 0,3 l/m 2,0 km/h (1 Bft) S 0,00 h 0,000 mm 1,0 UV-I 162 W/m 13,4 C 14,2 C 3,3 km/h (1 Bft) 0,00 %
07.10.2015 15:00 14,4 C 93 % 1012,9 hPa 0,0 l/m 2,5 km/h (1 Bft) S 0,00 h 0,000 mm 1,0 UV-I 130 W/m 13,4 C 14,4 C 5,0 km/h (1 Bft) 0,00 %
07.10.2015 16:00 14,4 C 94 % 1013,0 hPa 0,3 l/m 0,0 km/h (0 Bft) N 0,00 h 0,000 mm 0,0 UV-I 91 W/m 13,4 C 14,4 C 0,3 km/h (0 Bft) 0,00 %
07.10.2015 17:00 14,0 C 95 % 1013,4 hPa 0,0 l/m 0,1 km/h (0 Bft) N 0,00 h 0,000 mm 0,0 UV-I 31 W/m 13,2 C 14,0 C 1,0 km/h (0 Bft) 0,00 %
07.10.2015 18:00 13,6 C 96 % 1013,9 hPa 0,3 l/m 0,0 km/h (0 Bft) N 0,00 h 0,000 mm 0,0 UV-I 1 W/m 13,0 C 13,6 C 0,0 km/h (0 Bft) 0,00 %
07.10.2015 19:00 13,5 C 97 % 1014,3 hPa 1,2 l/m 0,2 km/h (0 Bft) SO 0,00 h 0,000 mm 0,0 UV-I 0 W/m 13,0 C 13,5 C 0,7 km/h (0 Bft) 0,00 %
07.10.2015 20:00 13,3 C 97 % 1014,7 hPa 1,2 l/m 0,6 km/h (0 Bft) S-SW 0,00 h 0,000 mm 0,0 UV-I 0 W/m 12,8 C 13,3 C 1,3 km/h (1 Bft) 0,00 %
07.10.2015 21:00 13,0 C 99 % 1014,9 hPa 1,5 l/m 0,7 km/h (0 Bft) S-SW 0,00 h 0,000 mm 0,0 UV-I 0 W/m 12,8 C 13,0 C 2,0 km/h (1 Bft) 0,00 %
07.10.2015 22:00 12,9 C 99 % 1015,2 hPa 2,1 l/m 2,2 km/h (1 Bft) S 0,00 h 0,000 mm 0,0 UV-I 0 W/m 12,8 C 12,7 C 4,3 km/h (1 Bft) 0,00 %
07.10.2015 23:00 12,6 C 98 % 1015,7 hPa 1,8 l/m 4,3 km/h (1 Bft) S-SW 0,00 h 0,000 mm 0,0 UV-I 0 W/m 12,2 C 12,5 C 6,9 km/h (2 Bft) 0,00 %
08.10.2015 00:00 11,9 C 97 % 1016,0 hPa 0,9 l/m 6,5 km/h (2 Bft) S 0,00 h 0,000 mm 0,0 UV-I 0 W/m 11,4 C 10,7 C 10,9 km/h (2 Bft) 0,00 %
08.10.2015 01:00 11,4 C 97 % 1016,2 hPa 1,8 l/m 8,3 km/h (2 Bft) S 0,00 h 0,000 mm 0,0 UV-I 0 W/m 10,9 C 10,0 C 12,2 km/h (2 Bft) 0,00 %
08.10.2015 02:00 11,4 C 97 % 1016,6 hPa 6,0 l/m 6,5 km/h (2 Bft) S 0,00 h 0,000 mm 0,0 UV-I 0 W/m 10,9 C 10,6 C 9,9 km/h (2 Bft) 0,00 %
08.10.2015 03:00 11,3 C 97 % 1016,9 hPa 6,6 l/m 4,7 km/h (1 Bft) SO 0,00 h 0,000 mm 0,0 UV-I 0 W/m 10,8 C 11,1 C 8,3 km/h (2 Bft) 0,00 %
08.10.2015 04:00 11,2 C 97 % 1016,9 hPa 1,2 l/m 2,6 km/h (1 Bft) SO 0,00 h 0,000 mm 0,0 UV-I 0 W/m 10,7 C 11,2 C 5,6 km/h (1 Bft) 0,00 %
08.10.2015 05:00 11,0 C 97 % 1017,2 hPa 0,3 l/m 4,4 km/h (1 Bft) S 0,00 h 0,000 mm 0,0 UV-I 0 W/m 10,6 C 10,8 C 7,6 km/h (2 Bft) 0,00 %
08.10.2015 06:00 10,8 C 98 % 1017,1 hPa 0,3 l/m 4,0 km/h (1 Bft) S 0,00 h 0,000 mm 0,0 UV-I 0 W/m 10,5 C 10,7 C 7,3 km/h (2 Bft) 0,00 %
08.10.2015 07:00 10,7 C 98 % 1017,4 hPa 0,0 l/m 2,7 km/h (1 Bft) S-SW 0,00 h 0,000 mm 0,0 UV-I 12 W/m 10,4 C 10,7 C 5,3 km/h (1 Bft) 0,00 %
08.10.2015 08:00 10,9 C 98 % 1018,0 hPa 0,0 l/m 3,3 km/h (1 Bft) S-SW 0,00 h 0,000 mm 0,0 UV-I 53 W/m 10,5 C 10,9 C 6,6 km/h (2 Bft) 0,00 %
08.10.2015 09:00 11,2 C 97 % 1018,5 hPa 0,0 l/m 2,7 km/h (1 Bft) S-SW 0,00 h 0,000 mm 1,0 UV-I 94 W/m 10,7 C 11,2 C 4,6 km/h (1 Bft) 0,00 %
08.10.2015 10:00 11,3 C 97 % 1018,9 hPa 0,0 l/m 3,2 km/h (1 Bft) S-SW 0,00 h 0,000 mm 1,0 UV-I 122 W/m 10,9 C 11,2 C 5,3 km/h (1 Bft) 0,00 %
08.10.2015 11:00 11,3 C 97 % 1019,1 hPa 0,0 l/m 3,8 km/h (1 Bft) S-SW 0,00 h 0,000 mm 1,0 UV-I 156 W/m 10,9 C 11,1 C 6,6 km/h (2 Bft) 0,00 %
08.10.2015 12:00 11,8 C 97 % 1019,1 hPa 0,0 l/m 5,2 km/h (1 Bft) W-SW 0,17 h 0,000 mm 1,0 UV-I 291 W/m 11,3 C 11,1 C 8,9 km/h (2 Bft) 0,00 %
08.10.2015 13:00 12,5 C 92 % 1019,3 hPa 0,0 l/m 3,4 km/h (1 Bft) S-SW 0,00 h 0,000 mm 1,0 UV-I 169 W/m 11,1 C 12,1 C 6,0 km/h (2 Bft) 0,00 %
08.10.2015 14:00 12,8 C 84 % 1019,3 hPa 0,0 l/m 1,9 km/h (1 Bft) S 0,00 h 0,000 mm 1,0 UV-I 134 W/m 10,2 C 12,8 C 3,3 km/h (1 Bft) 0,00 %
08.10.2015 15:00 13,3 C 80 % 1019,2 hPa 0,0 l/m 1,4 km/h (1 Bft) S-SW 0,00 h 0,000 mm 1,0 UV-I 165 W/m 9,8 C 13,3 C 3,3 km/h (1 Bft) 0,00 %
08.10.2015 16:00 13,9 C 76 % 1019,0 hPa 0,0 l/m 2,3 km/h (1 Bft) S 0,25 h 0,000 mm 1,0 UV-I 139 W/m 9,8 C 13,9 C 5,6 km/h (1 Bft) 0,00 %
08.10.2015 17:00 13,6 C 78 % 1019,3 hPa 0,0 l/m 0,7 km/h (0 Bft) O-SO 0,17 h 0,000 mm 1,0 UV-I 76 W/m 9,8 C 13,6 C 1,7 km/h (1 Bft) 0,00 %
08.10.2015 18:00 12,6 C 80 % 1019,6 hPa 0,0 l/m 0,4 km/h (0 Bft) S-SW 0,00 h 0,000 mm 0,0 UV-I 6 W/m 9,3 C 12,6 C 1,0 km/h (0 Bft) 0,00 %
08.10.2015 19:00 12,0 C 83 % 1020,0 hPa 0,0 l/m 0,0 km/h (0 Bft) N 0,00 h 0,000 mm 0,0 UV-I 0 W/m 9,2 C 12,0 C 0,3 km/h (0 Bft) 0,00 %
08.10.2015 20:00 11,4 C 89 % 1020,2 hPa 0,0 l/m 0,0 km/h (0 Bft) N 0,00 h 0,000 mm 0,0 UV-I 0 W/m 9,6 C 11,4 C 0,0 km/h (0 Bft) 0,00 %
08.10.2015 21:00 11,1 C 89 % 1020,5 hPa 0,0 l/m 0,1 km/h (0 Bft) N 0,00 h 0,000 mm 0,0 UV-I 0 W/m 9,4 C 11,1 C 0,7 km/h (0 Bft) 0,00 %
08.10.2015 22:00 10,9 C 90 % 1020,8 hPa 0,3 l/m 0,0 km/h (0 Bft) N 0,00 h 0,000 mm 0,0 UV-I 0 W/m 9,4 C 10,9 C 0,0 km/h (0 Bft) 0,00 %
08.10.2015 23:00 10,7 C 93 % 1020,9 hPa 0,3 l/m 0,7 km/h (0 Bft) S 0,00 h 0,000 mm 0,0 UV-I 0 W/m 9,5 C 10,7 C 2,3 km/h (1 Bft) 0,00 %
09.10.2015 00:00 10,4 C 94 % 1020,9 hPa 0,6 l/m 0,3 km/h (0 Bft) S 0,00 h 0,000 mm 0,0 UV-I 0 W/m 9,5 C 10,4 C 0,7 km/h (0 Bft) 0,00 %
09.10.2015 01:00 10,4 C 95 % 1020,7 hPa 0,6 l/m 0,0 km/h (0 Bft) N 0,00 h 0,000 mm 0,0 UV-I 0 W/m 9,6 C 10,4 C 0,0 km/h (0 Bft) 0,00 %
09.10.2015 02:00 10,4 C 96 % 1020,5 hPa 0,3 l/m 0,0 km/h (0 Bft) N 0,00 h 0,000 mm 0,0 UV-I 0 W/m 9,8 C 10,4 C 0,0 km/h (0 Bft) 0,00 %
09.10.2015 03:00 10,4 C 96 % 1020,2 hPa 0,0 l/m 0,0 km/h (0 Bft) N 0,00 h 0,000 mm 0,0 UV-I 0 W/m 9,8 C 10,4 C 0,0 km/h (0 Bft) 0,00 %
09.10.2015 04:00 10,4 C 96 % 1020,1 hPa 0,3 l/m 0,0 km/h (0 Bft) N 0,00 h 0,000 mm 0,0 UV-I 0 W/m 9,8 C 10,4 C 0,0 km/h (0 Bft) 0,00 %
09.10.2015 05:00 10,5 C 96 % 1019,8 hPa 0,0 l/m 0,0 km/h (0 Bft) N 0,00 h 0,000 mm 0,0 UV-I 0 W/m 9,9 C 10,5 C 0,0 km/h (0 Bft) 0,00 %
09.10.2015 06:00 10,4 C 96 % 1019,6 hPa 0,0 l/m 0,1 km/h (0 Bft) N 0,00 h 0,000 mm 0,0 UV-I 0 W/m 9,8 C 10,4 C 0,7 km/h (0 Bft) 0,00 %
09.10.2015 07:00 10,4 C 96 % 1019,7 hPa 0,0 l/m 0,0 km/h (0 Bft) N 0,00 h 0,000 mm 0,0 UV-I 18 W/m 9,8 C 10,4 C 0,0 km/h (0 Bft) 0,00 %
09.10.2015 08:00 11,0 C 96 % 1020,1 hPa 0,0 l/m 0,0 km/h (0 Bft) N 0,00 h 0,000 mm 0,0 UV-I 72 W/m 10,4 C 11,0 C 0,0 km/h (0 Bft) 0,00 %
09.10.2015 09:00 12,2 C 93 % 1020,0 hPa 0,0 l/m 0,0 km/h (0 Bft) N 0,00 h 0,000 mm 1,0 UV-I 161 W/m 11,1 C 12,2 C 0,0 km/h (0 Bft) 0,00 %
09.10.2015 10:00 13,3 C 84 % 1019,7 hPa 0,0 l/m 0,1 km/h (0 Bft) N 0,08 h 0,000 mm 1,0 UV-I 224 W/m 10,6 C 13,3 C 0,3 km/h (0 Bft) 0,00 %
09.10.2015 11:00 13,6 C 82 % 1019,5 hPa 0,0 l/m 0,0 km/h (0 Bft) N 0,42 h 0,000 mm 1,0 UV-I 300 W/m 10,6 C 13,6 C 0,0 km/h (0 Bft) 0,00 %
09.10.2015 12:00 14,9 C 75 % 1019,1 hPa 0,0 l/m 0,1 km/h (0 Bft) O-SO 0,92 h 0,000 mm 1,4 UV-I 390 W/m 10,5 C 14,9 C 0,3 km/h (0 Bft) 0,00 %
09.10.2015 13:00 15,0 C 74 % 1018,6 hPa 0,0 l/m 0,2 km/h (0 Bft) NO 0,42 h 0,000 mm 1,4 UV-I 318 W/m 10,3 C 15,0 C 0,7 km/h (0 Bft) 0,00 %
09.10.2015 14:00 15,7 C 70 % 1018,0 hPa 0,0 l/m 0,1 km/h (0 Bft) N 0,75 h 0,000 mm 1,0 UV-I 360 W/m 10,3 C 15,7 C 0,7 km/h (0 Bft) 0,00 %
09.10.2015 15:00 16,3 C 68 % 1017,7 hPa 0,0 l/m 0,7 km/h (0 Bft) O 1,00 h 0,000 mm 1,0 UV-I 256 W/m 10,3 C 16,3 C 1,3 km/h (1 Bft) 0,00 %
09.10.2015 16:00 16,1 C 69 % 1017,8 hPa 0,0 l/m 0,0 km/h (0 Bft) N 0,33 h 0,000 mm 1,0 UV-I 142 W/m 10,4 C 16,1 C 0,0 km/h (0 Bft) 0,00 %
09.10.2015 17:00 15,1 C 74 % 1018,1 hPa 0,0 l/m 0,0 km/h (0 Bft) N 0,00 h 0,000 mm 0,0 UV-I 30 W/m 10,5 C 15,1 C 0,0 km/h (0 Bft) 0,00 %
09.10.2015 18:00 14,0 C 81 % 1018,3 hPa 0,0 l/m 0,0 km/h (0 Bft) N 0,00 h 0,000 mm 0,0 UV-I 3 W/m 10,8 C 14,0 C 0,0 km/h (0 Bft) 0,00 %
09.10.2015 19:00 13,2 C 85 % 1018,3 hPa 0,0 l/m 0,0 km/h (0 Bft) N 0,00 h 0,000 mm 0,0 UV-I 0 W/m 10,8 C 13,2 C 0,0 km/h (0 Bft) 0,00 %
09.10.2015 20:00 12,7 C 89 % 1018,3 hPa 0,0 l/m 0,0 km/h (0 Bft) N 0,00 h 0,000 mm 0,0 UV-I 0 W/m 11,0 C 12,7 C 0,0 km/h (0 Bft) 0,00 %
09.10.2015 21:00 12,7 C 89 % 1018,4 hPa 0,0 l/m 0,1 km/h (0 Bft) O 0,00 h 0,000 mm 0,0 UV-I 0 W/m 10,9 C 12,7 C 0,3 km/h (0 Bft) 0,00 %
09.10.2015 22:00 12,6 C 88 % 1018,5 hPa 0,0 l/m 3,3 km/h (1 Bft) O 0,00 h 0,000 mm 0,0 UV-I 0 W/m 10,6 C 12,1 C 6,0 km/h (2 Bft) 0,00 %
09.10.2015 23:00 11,7 C 88 % 1018,4 hPa 0,0 l/m 4,4 km/h (1 Bft) O 0,00 h 0,000 mm 0,0 UV-I 0 W/m 9,8 C 11,3 C 7,6 km/h (2 Bft) 0,00 %
10.10.2015 00:00 11,2 C 89 % 1018,3 hPa 0,0 l/m 4,3 km/h (1 Bft) O 0,00 h 0,000 mm 0,0 UV-I 0 W/m 9,4 C 11,0 C 7,3 km/h (2 Bft) 0,00 %
10.10.2015 01:00 10,9 C 89 % 1018,3 hPa 0,0 l/m 5,5 km/h (1 Bft) O 0,00 h 0,000 mm 0,0 UV-I 0 W/m 9,1 C 10,2 C 9,2 km/h (2 Bft) 0,00 %
10.10.2015 02:00 10,7 C 85 % 1017,9 hPa 0,0 l/m 8,9 km/h (2 Bft) O 0,00 h 0,000 mm 0,0 UV-I 0 W/m 8,3 C 9,0 C 12,9 km/h (3 Bft) 0,00 %
10.10.2015 03:00 10,2 C 84 % 1017,9 hPa 0,0 l/m 5,6 km/h (1 Bft) O 0,00 h 0,000 mm 0,0 UV-I 0 W/m 7,7 C 9,6 C 8,9 km/h (2 Bft) 0,00 %
10.10.2015 04:00 10,0 C 85 % 1017,9 hPa 0,0 l/m 5,2 km/h (1 Bft) O 0,00 h 0,000 mm 0,0 UV-I 0 W/m 7,5 C 9,5 C 8,6 km/h (2 Bft) 0,00 %
10.10.2015 05:00 9,5 C 83 % 1017,5 hPa 0,0 l/m 4,7 km/h (1 Bft) O-NO 0,00 h 0,000 mm 0,0 UV-I 0 W/m 6,8 C 8,8 C 7,6 km/h (2 Bft) 0,00 %
10.10.2015 06:00 8,7 C 80 % 1017,4 hPa 0,0 l/m 4,3 km/h (1 Bft) O 0,00 h 0,000 mm 0,0 UV-I 0 W/m 5,5 C 8,5 C 7,3 km/h (2 Bft) 0,00 %
10.10.2015 07:00 8,1 C 77 % 1017,4 hPa 0,0 l/m 3,1 km/h (1 Bft) O 0,00 h 0,000 mm 0,0 UV-I 8 W/m 4,3 C 8,1 C 6,0 km/h (2 Bft) 0,00 %
10.10.2015 08:00 8,3 C 76 % 1017,4 hPa 0,0 l/m 5,5 km/h (1 Bft) O-NO 0,00 h 0,000 mm 1,0 UV-I 63 W/m 4,2 C 7,5 C 8,3 km/h (2 Bft) 0,00 %
10.10.2015 09:00 8,7 C 74 % 1017,3 hPa 0,0 l/m 6,4 km/h (2 Bft) O 0,00 h 0,000 mm 1,0 UV-I 116 W/m 4,4 C 7,4 C 10,3 km/h (2 Bft) 0,00 %
10.10.2015 10:00 9,1 C 74 % 1016,9 hPa 0,0 l/m 6,2 km/h (2 Bft) O 0,17 h 0,000 mm 1,0 UV-I 198 W/m 4,7 C 8,0 C 9,9 km/h (2 Bft) 0,00 %
10.10.2015 11:00 10,1 C 71 % 1016,3 hPa 0,0 l/m 10,5 km/h (2 Bft) O 0,00 h 0,000 mm 1,0 UV-I 245 W/m 5,1 C 7,4 C 15,2 km/h (3 Bft) 0,00 %
10.10.2015 12:00 10,8 C 71 % 1015,7 hPa 0,0 l/m 5,7 km/h (1 Bft) O-SO 0,50 h 0,000 mm 1,7 UV-I 327 W/m 5,7 C 10,5 C 9,6 km/h (2 Bft) 0,00 %
10.10.2015 13:00 10,8 C 75 % 1015,1 hPa 0,0 l/m 9,1 km/h (2 Bft) O-NO 0,00 h 0,000 mm 1,0 UV-I 283 W/m 6,5 C 9,0 C 12,5 km/h (3 Bft) 0,00 %
10.10.2015 14:00 11,0 C 76 % 1014,3 hPa 0,0 l/m 11,7 km/h (2 Bft) O-NO 0,67 h 0,000 mm 1,1 UV-I 314 W/m 6,8 C 7,7 C 15,6 km/h (3 Bft) 0,00 %
10.10.2015 15:00 10,7 C 77 % 1013,7 hPa 0,0 l/m 9,4 km/h (2 Bft) O 0,83 h 0,000 mm 1,0 UV-I 270 W/m 6,9 C 8,6 C 14,9 km/h (3 Bft) 0,00 %
10.10.2015 16:00 10,5 C 77 % 1013,5 hPa 0,0 l/m 6,7 km/h (2 Bft) O 0,92 h 0,000 mm 1,0 UV-I 179 W/m 6,7 C 9,6 C 10,6 km/h (2 Bft) 0,00 %
10.10.2015 17:00 9,5 C 81 % 1013,6 hPa 0,0 l/m 7,6 km/h (2 Bft) O 0,17 h 0,000 mm 0,0 UV-I 63 W/m 6,4 C 8,2 C 12,2 km/h (2 Bft) 0,00 %
10.10.2015 18:00 8,5 C 84 % 1013,6 hPa 0,0 l/m 9,4 km/h (2 Bft) O 0,00 h 0,000 mm 0,0 UV-I 5 W/m 5,8 C 6,2 C 15,2 km/h (3 Bft) 0,00 %
10.10.2015 19:00 8,0 C 84 % 1014,0 hPa 0,0 l/m 12,4 km/h (3 Bft) O-SO 0,00 h 0,000 mm 0,0 UV-I 0 W/m 5,6 C 4,1 C 16,9 km/h (3 Bft) 0,00 %
10.10.2015 20:00 7,8 C 86 % 1014,1 hPa 0,0 l/m 8,8 km/h (2 Bft) O-SO 0,00 h 0,000 mm 0,0 UV-I 0 W/m 5,6 C 6,0 C 12,5 km/h (3 Bft) 0,00 %
10.10.2015 21:00 7,5 C 86 % 1014,2 hPa 0,0 l/m 9,6 km/h (2 Bft) O 0,00 h 0,000 mm 0,0 UV-I 0 W/m 5,3 C 5,0 C 13,9 km/h (3 Bft) 0,00 %
10.10.2015 22:00 7,2 C 87 % 1014,3 hPa 0,0 l/m 4,1 km/h (1 Bft) O 0,00 h 0,000 mm 0,0 UV-I 0 W/m 5,1 C 6,8 C 6,6 km/h (2 Bft) 0,00 %
10.10.2015 23:00 6,7 C 89 % 1013,9 hPa 0,0 l/m 5,9 km/h (2 Bft) O-NO 0,00 h 0,000 mm 0,0 UV-I 0 W/m 5,0 C 5,9 C 10,6 km/h (2 Bft) 0,00 %
11.10.2015 00:00 6,6 C 88 % 1013,6 hPa 0,0 l/m 9,6 km/h (2 Bft) O 0,00 h 0,000 mm 0,0 UV-I 0 W/m 4,6 C 3,9 C 12,9 km/h (3 Bft) 0,00 %
11.10.2015 01:00 6,0 C 90 % 1013,5 hPa 0,3 l/m 8,0 km/h (2 Bft) O 0,00 h 0,000 mm 0,0 UV-I 0 W/m 4,5 C 4,4 C 12,2 km/h (2 Bft) 0,00 %
11.10.2015 02:00 5,4 C 94 % 1013,4 hPa 0,9 l/m 6,2 km/h (2 Bft) O-SO 0,00 h 0,000 mm 0,0 UV-I 0 W/m 4,4 C 4,5 C 10,2 km/h (2 Bft) 0,00 %
11.10.2015 03:00 4,8 C 95 % 1013,1 hPa 1,2 l/m 5,4 km/h (1 Bft) O 0,00 h 0,000 mm 0,0 UV-I 0 W/m 4,2 C 4,4 C 8,3 km/h (2 Bft) 0,00 %
11.10.2015 04:00 4,7 C 97 % 1013,0 hPa 0,9 l/m 4,0 km/h (1 Bft) O 0,00 h 0,000 mm 0,0 UV-I 0 W/m 4,2 C 4,5 C 6,6 km/h (2 Bft) 0,00 %
11.10.2015 05:00 4,5 C 98 % 1013,3 hPa 0,6 l/m 1,1 km/h (1 Bft) O 0,00 h 0,000 mm 0,0 UV-I 0 W/m 4,3 C 4,5 C 2,7 km/h (1 Bft) 0,00 %
11.10.2015 06:00 4,4 C 99 % 1013,4 hPa 1,2 l/m 1,2 km/h (1 Bft) O-SO 0,00 h 0,000 mm 0,0 UV-I 0 W/m 4,3 C 4,4 C 3,3 km/h (1 Bft) 0,00 %
11.10.2015 07:00 4,3 C 99 % 1013,5 hPa 0,6 l/m 1,3 km/h (1 Bft) O 0,00 h 0,000 mm 0,0 UV-I 2 W/m 4,2 C 4,3 C 2,7 km/h (1 Bft) 0,00 %
11.10.2015 08:00 4,4 C 99 % 1013,7 hPa 0,9 l/m 0,6 km/h (0 Bft) O-SO 0,00 h 0,000 mm 0,0 UV-I 24 W/m 4,2 C 4,4 C 1,7 km/h (1 Bft) 0,00 %
11.10.2015 09:00 4,7 C 99 % 1014,0 hPa 0,6 l/m 0,3 km/h (0 Bft) O 0,00 h 0,000 mm 0,0 UV-I 68 W/m 4,5 C 4,7 C 1,0 km/h (0 Bft) 0,00 %
11.10.2015 10:00 5,1 C 98 % 1014,2 hPa 0,3 l/m 0,5 km/h (0 Bft) O 0,00 h 0,000 mm 1,0 UV-I 141 W/m 4,9 C 5,1 C 2,0 km/h (1 Bft) 0,00 %
11.10.2015 11:00 5,6 C 98 % 1014,2 hPa 0,0 l/m 0,2 km/h (0 Bft) O 0,00 h 0,000 mm 1,0 UV-I 171 W/m 5,3 C 5,6 C 0,7 km/h (0 Bft) 0,00 %
11.10.2015 12:00 5,6 C 98 % 1014,3 hPa 0,0 l/m 0,0 km/h (0 Bft) N 0,00 h 0,000 mm 1,0 UV-I 158 W/m 5,3 C 5,6 C 0,0 km/h (0 Bft) 0,00 %
11.10.2015 13:00 6,6 C 97 % 1013,8 hPa 0,0 l/m 0,0 km/h (0 Bft) N 0,75 h 0,000 mm 1,0 UV-I 415 W/m 6,2 C 6,6 C 0,3 km/h (0 Bft) 0,00 %
11.10.2015 14:00 7,2 C 90 % 1013,2 hPa 0,0 l/m 0,1 km/h (0 Bft) N 0,83 h 0,000 mm 1,0 UV-I 561 W/m 5,7 C 7,2 C 0,7 km/h (0 Bft) 0,00 %
11.10.2015 15:00 8,2 C 76 % 1013,3 hPa 0,0 l/m 0,4 km/h (0 Bft) O-NO 0,50 h 0,000 mm 1,0 UV-I 254 W/m 4,2 C 8,2 C 0,7 km/h (0 Bft) 0,00 %
11.10.2015 16:00 9,1 C 69 % 1013,1 hPa 0,0 l/m 0,1 km/h (0 Bft) N 1,00 h 0,000 mm 1,0 UV-I 442 W/m 3,8 C 9,1 C 0,3 km/h (0 Bft) 0,00 %
11.10.2015 17:00 10,2 C 65 % 1013,6 hPa 0,0 l/m 0,0 km/h (0 Bft) N 1,00 h 0,000 mm 1,0 UV-I 155 W/m 3,9 C 10,2 C 0,0 km/h (0 Bft) 0,00 %
11.10.2015 18:00 8,0 C 77 % 1014,5 hPa 0,0 l/m 0,0 km/h (0 Bft) N 0,08 h 0,000 mm 0,0 UV-I 9 W/m 4,1 C 8,0 C 0,0 km/h (0 Bft) 0,00 %
11.10.2015 19:00 6,2 C 85 % 1015,1 hPa 0,0 l/m 0,0 km/h (0 Bft) N 0,00 h 0,000 mm 0,0 UV-I 0 W/m 3,9 C 6,2 C 0,0 km/h (0 Bft) 0,00 %
11.10.2015 20:00 6,3 C 78 % 1015,4 hPa 0,0 l/m 0,6 km/h (0 Bft) O-NO 0,00 h 0,000 mm 0,0 UV-I 0 W/m 2,8 C 6,3 C 1,3 km/h (1 Bft) 0,00 %
11.10.2015 21:00 6,1 C 73 % 1015,9 hPa 0,0 l/m 0,3 km/h (0 Bft) O-NO 0,00 h 0,000 mm 0,0 UV-I 0 W/m 1,5 C 6,1 C 0,3 km/h (0 Bft) 0,00 %
11.10.2015 22:00 5,2 C 76 % 1016,0 hPa 0,0 l/m 0,3 km/h (0 Bft) O-NO 0,00 h 0,000 mm 0,0 UV-I 0 W/m 1,4 C 5,2 C 0,7 km/h (0 Bft) 0,00 %
11.10.2015 23:00 4,8 C 74 % 1015,9 hPa 0,0 l/m 1,6 km/h (1 Bft) O-NO 0,00 h 0,000 mm 0,0 UV-I 0 W/m 0,7 C 4,8 C 3,0 km/h (1 Bft) 0,00 %
Min-Datum _ 11.10.15 05.10.15 06.10.15 - 05.10.15 - - - - - 11.10.15 10.10.15 05.10.15 05.10.15
_ Min-Zeit 07:05 17:27 16:03 - 00:01 - - - - - 23:46 21:34 00:01 00:01
Minimum _ 4,3 C 48 % 1006,2 hPa - 0,0 km/h (0 Bft) - - - - - 0,4 C -0,5 C 0,0 km/h (0 Bft) 0,00 %
Max-Datum _ 06.10.15 05.10.15 08.10.15 08.10.15 10.10.15 - 05.10.15 05.10.15 05.10.15 06.10.15 07.10.15 06.10.15 10.10.15 05.10.15
_ Max-Zeit 16:13 02:36 23:36 03:00 21:34 - 15:42 00:01 11:51 14:28 14:49 16:08 21:34 00:01
Maximum _ 18,4 C 99 % 1021,0 hPa 6,6 l/m 21,6 km/h
O (4 Bft)
- 0,10 h 0,000 mm 2,0 UV-I 804 W/m 13,5 C 18,3 C 32,0 km/h
O (5 Bft)
0,00 %
Durchschnitt _ 10,7 C 87 % 1015,0 hPa #50,7 l/m 2,4 km/h (1 Bft) O #23:46 h #0,000 mm 1,1 UV-I 197 W/m 8,5 C 10,4 C 4,0 km/h (1 Bft) 0,00 %